Time;durP1;ratioP1;P1;durP2;ratioP2;P2;SDS_P1;SDS_P2;PMS_P1;PMS_P2;Temp;Humidity;BMP_temperature;BMP_pressure;BME280_temperature;BME280_humidity;BME280_pressure;Samples;Min_cycle;Max_cycle;Signal;HPM_P1;HPM_P2
2023/04/08 00:00:00;;;;;;;16.23;14.55;;;;;;;0.78;100.00;160776.28;5069353;28;20094;-60
2023/04/08 00:02:26;;;;;;;16.90;15.10;;;;;;;0.78;100.00;160776.28;5070947;28;20052;-59
2023/04/08 00:04:51;;;;;;;18.40;16.23;;;;;;;0.69;100.00;160752.13;5069503;28;20404;-59
2023/04/08 00:07:16;;;;;;;19.15;15.55;;;;;;;0.86;100.00;160796.38;5071177;28;20024;-59
2023/04/08 00:09:42;;;;;;;19.38;17.25;;;;;;;0.86;100.00;160796.38;5069421;28;20032;-59
2023/04/08 00:12:07;;;;;;;17.58;15.70;;;;;;;0.84;100.00;160790.97;5070443;28;20025;-59
2023/04/08 00:14:32;;;;;;;18.02;15.93;;;;;;;0.82;100.00;160786.97;5069352;28;20098;-60
2023/04/08 00:16:58;;;;;;;22.67;14.70;;;;;;;0.82;100.00;160786.97;5070625;28;20502;-59
2023/04/08 00:19:24;;;;;;;72.28;15.07;;;;;;;0.78;100.00;160776.28;5069456;28;20040;-60
2023/04/08 00:21:50;;;;;;;15.20;13.57;;;;;;;0.71;100.00;160757.50;5070497;28;20150;-60
2023/04/08 00:24:16;;;;;;;16.55;14.35;;;;;;;0.64;100.00;160740.06;5069342;28;20072;-60
2023/04/08 00:26:41;;;;;;;19.20;15.98;;;;;;;0.63;100.00;160738.69;5070816;28;20036;-60
2023/04/08 00:29:07;;;;;;;28.17;21.67;;;;;;;0.63;100.00;160737.38;5069048;28;20028;-59
2023/04/08 00:31:32;;;;;;;26.52;19.55;;;;;;;0.68;100.00;160749.44;5070904;28;20012;-62
2023/04/08 00:33:57;;;;;;;22.75;17.40;;;;;;;0.69;100.00;160752.13;5068638;28;20111;-58
2023/04/08 00:36:23;;;;;;;22.88;14.25;;;;;;;0.64;100.00;160740.06;5070760;28;20016;-59
2023/04/08 00:38:48;;;;;;;14.85;13.32;;;;;;;0.55;100.00;160715.91;5070394;28;20035;-59
2023/04/08 00:41:13;;;;;;;17.05;15.30;;;;;;;0.49;100.00;160701.16;5068715;28;20036;-58
2023/04/08 00:43:39;;;;;;;32.58;21.52;;;;;;;0.51;100.00;160705.22;5070787;28;20017;-58
2023/04/08 00:46:04;;;;;;;25.30;19.38;;;;;;;0.55;100.00;160715.91;5069154;28;20044;-59
2023/04/08 00:48:30;;;;;;;34.38;24.27;;;;;;;0.55;100.00;160717.28;5069918;28;20601;-59
2023/04/08 00:50:56;;;;;;;18.52;16.52;;;;;;;0.60;100.00;160730.66;5068788;28;20413;-58
2023/04/08 00:53:22;;;;;;;25.65;19.58;;;;;;;0.54;100.00;160714.59;5070720;28;20028;-59
2023/04/08 00:55:47;;;;;;;27.25;20.58;;;;;;;0.49;100.00;160701.16;5072936;28;20033;-59
2023/04/08 00:58:13;;;;;;;23.35;19.77;;;;;;;0.50;100.00;160702.53;5074803;28;20031;-59
2023/04/08 01:00:43;;;;;;;24.30;20.17;;;;;;;0.49;100.00;160701.16;5073203;28;20489;-59
2023/04/08 01:03:14;;;;;;;64.78;17.85;;;;;;;0.48;100.00;160698.50;5073724;28;20040;-59
2023/04/08 01:06:07;;;;;;;25.20;15.25;;;;;;;0.38;100.00;160671.69;5073005;28;20060;-58
2023/04/08 01:08:37;;;;;;;21.23;17.15;;;;;;;0.29;100.00;160650.22;5074408;28;20079;-59
2023/04/08 01:11:07;;;;;;;18.10;15.43;;;;;;;0.27;100.00;160643.53;5072446;28;20040;-59
2023/04/08 01:13:36;;;;;;;79.65;18.10;;;;;;;0.23;100.00;160632.78;5074343;28;20024;-59
2023/04/08 01:16:01;;;;;;;19.73;14.05;;;;;;;0.15;100.00;160612.72;5072516;28;20041;-59
2023/04/08 01:18:29;;;;;;;21.00;18.13;;;;;;;-0.13;100.00;160540.34;5074142;28;20074;-58
2023/04/08 01:20:55;;;;;;;21.88;19.00;;;;;;;0.10;100.00;160599.31;5072450;28;20060;-60
2023/04/08 01:23:38;;;;;;;22.98;18.55;;;;;;;0.09;100.00;160597.94;5073913;28;20037;-59
2023/04/08 01:26:03;;;;;;;129.50;25.23;;;;;;;0.09;100.00;160596.63;5072302;28;20049;-60
2023/04/08 01:28:30;;;;;;;23.27;18.70;;;;;;;0.06;100.00;160588.56;5074177;28;20020;-60
2023/04/08 01:30:58;;;;;;;29.48;22.08;;;;;;;0.08;100.00;160593.94;5072007;28;20515;-60
2023/04/08 01:33:24;;;;;;;29.83;22.98;;;;;;;0.12;100.00;160604.66;5074076;28;20112;-60
2023/04/08 01:35:51;;;;;;;27.48;21.35;;;;;;;0.12;100.00;160606.00;5072094;28;20035;-60
2023/04/08 01:38:19;;;;;;;25.73;19.35;;;;;;;0.10;100.00;160599.31;5073289;28;20468;-60
2023/04/08 01:40:46;;;;;;;216.65;24.27;;;;;;;0.04;100.00;160583.25;5072206;28;20144;-60
2023/04/08 01:43:14;;;;;;;113.30;18.15;;;;;;;-0.09;100.00;160551.06;5073737;28;20107;-59
2023/04/08 01:45:44;;;;;;;18.83;11.48;;;;;;;-0.17;100.00;160529.59;5072021;28;20094;-60
2023/04/08 01:48:12;;;;;;;14.80;13.38;;;;;;;-0.21;100.00;160518.91;5073654;28;20025;-59
2023/04/08 01:50:40;;;;;;;15.02;13.48;;;;;;;-0.23;100.00;160514.91;5072055;28;20060;-59
2023/04/08 01:53:08;;;;;;;20.63;17.00;;;;;;;-0.27;100.00;160504.16;5072831;28;20094;-59
2023/04/08 01:55:34;;;;;;;29.02;20.30;;;;;;;-0.24;100.00;160510.84;5072158;28;20036;-59
2023/04/08 01:58:01;;;;;;;27.40;17.30;;;;;;;-0.28;100.00;160500.16;5072963;28;20032;-59
2023/04/08 02:00:29;;;;;;;25.88;18.42;;;;;;;-0.24;100.00;160512.22;5071888;28;20098;-62
2023/04/08 02:02:57;;;;;;;25.15;19.90;;;;;;;-0.23;100.00;160513.53;5073288;28;20035;-62
2023/04/08 02:05:22;;;;;;;24.83;20.02;;;;;;;-0.24;100.00;160512.22;5070639;28;20086;-62
2023/04/08 02:07:48;;;;;;;40.05;25.63;;;;;;;-0.26;100.00;160505.53;5073126;28;20494;-61
2023/04/08 02:10:14;;;;;;;33.72;24.02;;;;;;;-0.25;100.00;160508.16;5071498;28;20036;-61
2023/04/08 02:12:39;;;;;;;31.23;24.35;;;;;;;-0.26;100.00;160505.53;5073091;28;20174;-61
2023/04/08 02:15:05;;;;;;;33.45;25.15;;;;;;;-0.25;100.00;160508.16;5071443;28;20048;-61
2023/04/08 02:17:45;;;;;;;29.55;22.77;;;;;;;-0.35;100.00;160484.09;5072943;28;20391;-62
2023/04/08 02:20:25;;;;;;;31.35;23.58;;;;;;;-0.41;100.00;160467.97;5071209;28;20063;-61
2023/04/08 02:22:57;;;;;;;29.45;22.27;;;;;;;-0.46;100.00;160453.25;5072521;28;20035;-61
2023/04/08 02:25:24;;;;;;;35.83;23.35;;;;;;;-0.54;100.00;160433.16;5071478;28;20119;-62
2023/04/08 02:27:51;;;;;;;28.48;20.75;;;;;;;-0.55;100.00;160431.81;5072663;28;20089;-62
2023/04/08 02:30:18;;;;;;;45.17;27.10;;;;;;;-0.56;100.00;160429.16;5071142;28;20507;-62
2023/04/08 02:32:45;;;;;;;38.35;25.75;;;;;;;-0.52;100.00;160438.53;5072806;28;20056;-62
2023/04/08 02:35:12;;;;;;;38.92;26.10;;;;;;;-0.51;100.00;160441.22;5071057;28;20052;-61
2023/04/08 02:37:37;;;;;;;31.20;24.17;;;;;;;-0.52;100.00;160439.84;5072376;28;20020;-61
2023/04/08 02:40:03;;;;;;;36.25;24.30;;;;;;;-0.57;100.00;160426.47;5071037;28;20132;-59
2023/04/08 02:42:28;;;;;;;39.35;25.90;;;;;;;-0.58;100.00;160423.78;5072737;28;20390;-60
2023/04/08 02:44:54;;;;;;;38.95;26.15;;;;;;;-0.57;100.00;160425.13;5070791;28;20457;-60
2023/04/08 02:47:19;;;;;;;29.75;20.95;;;;;;;-0.57;100.00;160425.13;5072769;28;20024;-60
2023/04/08 02:49:45;;;;;;;31.95;22.70;;;;;;;-0.62;100.00;160413.06;5070794;28;20063;-60
2023/04/08 02:52:10;;;;;;;40.35;26.38;;;;;;;-0.68;100.00;160397.00;5072431;28;20040;-60
2023/04/08 02:54:35;;;;;;;39.30;24.00;;;;;;;-0.65;100.00;160406.38;5070389;28;20419;-60
2023/04/08 02:57:01;;;;;;;39.90;26.10;;;;;;;-0.65;100.00;160406.38;5072382;28;20025;-60
2023/04/08 02:59:26;;;;;;;37.30;26.38;;;;;;;-0.58;100.00;160422.47;5071009;28;20036;-60
2023/04/08 03:01:51;;;;;;;33.60;25.45;;;;;;;-0.63;100.00;160409.06;5071698;28;20024;-61
2023/04/08 03:04:17;;;;;;;35.25;24.80;;;;;;;-0.63;100.00;160409.06;5070737;28;20025;-60
2023/04/08 03:06:42;;;;;;;34.45;23.67;;;;;;;-0.62;100.00;160411.72;5072184;28;20388;-60
2023/04/08 03:09:08;;;;;;;34.17;23.77;;;;;;;-0.62;100.00;160411.72;5070370;28;20089;-60
2023/04/08 03:11:34;;;;;;;41.47;29.70;;;;;;;-0.65;100.00;160406.38;5072145;28;20089;-60
2023/04/08 03:13:59;;;;;;;40.65;28.00;;;;;;;-0.66;100.00;160403.69;5070151;28;20406;-58
2023/04/08 03:16:25;;;;;;;41.35;30.92;;;;;;;-0.67;100.00;160399.69;5071418;28;20437;-59
2023/04/08 03:18:50;;;;;;;40.10;27.60;;;;;;;-0.65;100.00;160405.03;5071715;28;20024;-59
2023/04/08 03:21:16;;;;;;;40.33;27.70;;;;;;;-0.62;100.00;160411.72;5070189;28;20052;-59
2023/04/08 03:23:41;;;;;;;38.85;25.95;;;;;;;-0.62;100.00;160411.72;5071781;28;20020;-59
2023/04/08 03:26:07;;;;;;;40.28;27.40;;;;;;;-0.62;100.00;160411.72;5070117;28;20622;-59
2023/04/08 03:28:32;;;;;;;37.78;28.50;;;;;;;-0.63;100.00;160410.38;5071937;28;20028;-58
2023/04/08 03:30:57;;;;;;;38.78;26.73;;;;;;;-0.63;100.00;160409.06;5069843;28;20239;-58
2023/04/08 03:33:23;;;;;;;41.15;27.48;;;;;;;-0.64;100.00;160407.72;5071561;28;20429;-59
2023/04/08 03:35:48;;;;;;;43.17;26.73;;;;;;;-0.66;100.00;160402.34;5069797;28;20036;-59
2023/04/08 03:38:13;;;;;;;40.50;26.08;;;;;;;-0.63;100.00;160409.06;5071304;28;20852;-59
2023/04/08 03:40:39;;;;;;;32.80;25.27;;;;;;;-0.69;100.00;160395.66;5070122;28;20060;-59
2023/04/08 03:43:05;;;;;;;42.40;26.23;;;;;;;-0.73;100.00;160384.94;5071365;28;20032;-61
2023/04/08 03:45:30;;;;;;;39.00;27.80;;;;;;;-0.76;100.00;160376.91;5069580;28;20032;-61
2023/04/08 03:47:56;;;;;;;38.53;26.35;;;;;;;-0.77;100.00;160374.22;5071131;28;20027;-61
2023/04/08 03:50:21;;;;;;;39.63;27.95;;;;;;;-0.75;100.00;160379.59;5069702;28;20427;-60
2023/04/08 03:52:47;;;;;;;35.45;24.92;;;;;;;-0.79;100.00;160368.88;5071144;28;20029;-62
2023/04/08 03:55:12;;;;;;;41.75;25.75;;;;;;;-0.80;100.00;160366.22;5069506;28;20044;-62
2023/04/08 03:57:37;;;;;;;32.17;24.27;;;;;;;-0.82;100.00;160360.84;5071269;28;20025;-62
2023/04/08 04:00:03;;;;;;;33.35;23.90;;;;;;;-0.86;100.00;160350.16;5069142;28;20032;-62
2023/04/08 04:02:28;;;;;;;33.58;22.17;;;;;;;-0.89;100.00;160342.09;5071090;28;20548;-61
2023/04/08 04:04:54;;;;;;;31.20;23.40;;;;;;;-0.93;100.00;160332.72;5069568;28;20030;-61
2023/04/08 04:07:19;;;;;;;36.97;23.75;;;;;;;-0.97;100.00;160323.34;5070685;28;20021;-61
2023/04/08 04:09:44;;;;;;;36.00;25.20;;;;;;;-1.05;100.00;160301.91;5069764;28;20036;-63
2023/04/08 04:12:10;;;;;;;37.97;24.33;;;;;;;-1.05;100.00;160301.91;5069921;28;20017;-61
2023/04/08 04:14:35;;;;;;;36.55;24.02;;;;;;;-1.04;100.00;160304.59;5068506;28;20102;-60
2023/04/08 04:17:01;;;;;;;38.63;21.85;;;;;;;-1.03;100.00;160305.91;5070103;28;20021;-58
2023/04/08 04:19:30;;;;;;;28.88;23.35;;;;;;;-1.07;100.00;160296.53;5069322;28;20036;-59
2023/04/08 04:21:55;;;;;;;58.67;27.33;;;;;;;-1.12;100.00;160283.16;5070141;28;20101;-58
2023/04/08 04:24:20;;;;;;;32.25;23.08;;;;;;;-1.17;100.00;160271.09;5067871;28;20044;-61
2023/04/08 04:26:46;;;;;;;32.33;21.33;;;;;;;-1.18;100.00;160267.09;5070919;28;20029;-60
2023/04/08 04:29:11;;;;;;;31.45;20.83;;;;;;;-1.20;100.00;160261.75;5067717;28;20020;-59
2023/04/08 04:31:36;;;;;;;28.58;20.95;;;;;;;-1.22;100.00;160256.38;5070866;28;20043;-60
2023/04/08 04:34:02;;;;;;;24.65;19.35;;;;;;;-1.30;100.00;160237.63;5069054;28;20429;-59
2023/04/08 04:36:27;;;;;;;28.48;22.92;;;;;;;-1.34;100.00;160225.63;5070391;28;20017;-59
2023/04/08 04:38:52;;;;;;;27.52;19.73;;;;;;;-1.38;100.00;160216.25;5068428;28;20021;-59
2023/04/08 04:41:18;;;;;;;27.33;20.58;;;;;;;-1.37;100.00;160217.56;5068067;28;20061;-59
2023/04/08 04:43:43;;;;;;;29.17;21.85;;;;;;;-1.37;100.00;160218.88;5070092;28;20081;-59
2023/04/08 04:46:08;;;;;;;33.65;24.27;;;;;;;-1.37;100.00;160217.56;5067475;28;20044;-59
2023/04/08 04:48:34;;;;;;;34.22;21.55;;;;;;;-1.35;100.00;160224.25;5069138;28;20498;-59
2023/04/08 04:51:01;;;;;;;30.52;20.63;;;;;;;-1.36;100.00;160221.56;5067392;28;20040;-59
2023/04/08 04:53:27;;;;;;;33.63;22.85;;;;;;;-1.31;100.00;160235.00;5050091;28;20364;-59
2023/04/08 04:55:52;;;;;;;36.92;22.70;;;;;;;-1.22;100.00;160257.72;5047615;28;20188;-59
2023/04/08 04:58:18;;;;;;;36.25;24.50;;;;;;;-1.13;100.00;160281.84;5050003;28;20087;-59
2023/04/08 05:00:43;;;;;;;25.85;20.90;;;;;;;-1.01;100.00;160312.66;5048498;28;20091;-59
2023/04/08 05:03:09;;;;;;;28.00;21.27;;;;;;;-0.91;100.00;160336.72;5049411;28;20024;-59
2023/04/08 05:05:34;;;;;;;35.03;23.23;;;;;;;-0.83;100.00;160358.16;5048040;28;20048;-59
2023/04/08 05:08:00;;;;;;;31.75;24.20;;;;;;;-0.96;100.00;160324.66;5050283;28;20017;-59
2023/04/08 05:10:25;;;;;;;36.13;25.50;;;;;;;-0.56;100.00;160427.81;5047727;28;20491;-58
2023/04/08 05:12:51;;;;;;;33.90;24.52;;;;;;;-0.45;100.00;160457.28;5049758;28;20032;-59
2023/04/08 05:15:16;;;;;;;23.83;18.65;;;;;;;-0.36;100.00;160481.41;5047761;28;20041;-58
2023/04/08 05:17:41;;;;;;;26.13;21.38;;;;;;;-0.35;100.00;160484.09;5049089;28;20024;-58
2023/04/08 05:20:07;;;;;;;29.80;20.65;;;;;;;-0.32;100.00;160490.78;5064198;28;20105;-58
2023/04/08 05:22:33;;;;;;;29.08;19.95;;;;;;;-0.30;100.00;160494.78;5068822;28;20028;-58
2023/04/08 05:24:58;;;;;;;31.48;21.05;;;;;;;-0.32;100.00;160492.09;5066228;28;20538;-58
2023/04/08 05:27:24;;;;;;;24.77;19.70;;;;;;;-0.29;100.00;160497.47;5068554;28;20021;-61
2023/04/08 05:29:49;;;;;;;28.55;21.83;;;;;;;-0.26;100.00;160505.53;5066395;28;20384;-60
2023/04/08 05:32:15;;;;;;;29.35;21.45;;;;;;;-0.21;100.00;160518.91;5068694;28;20046;-61
2023/04/08 05:34:41;;;;;;;30.88;23.60;;;;;;;-0.21;100.00;160518.91;5067808;28;20098;-60
2023/04/08 05:37:06;;;;;;;31.35;22.48;;;;;;;0.06;100.00;160588.56;5068935;28;20483;-61
2023/04/08 05:39:32;;;;;;;27.85;20.52;;;;;;;0.12;100.00;160604.66;5066880;28;20097;-61
2023/04/08 05:41:57;;;;;;;29.60;20.05;;;;;;;0.24;100.00;160636.84;5072239;28;20035;-61
2023/04/08 05:44:22;;;;;;;25.67;20.23;;;;;;;0.29;100.00;160648.91;5071307;28;20036;-60
2023/04/08 05:46:48;;;;;;;23.13;18.45;;;;;;;0.36;100.00;160666.31;5069519;28;20399;-60
2023/04/08 05:49:14;;;;;;;21.98;17.42;;;;;;;0.46;100.00;160693.13;5071683;28;20031;-60
2023/04/08 05:51:39;;;;;;;23.33;17.15;;;;;;;0.52;100.00;160709.22;5072396;28;20017;-60
2023/04/08 05:54:05;;;;;;;20.00;15.77;;;;;;;0.53;100.00;160711.91;5070079;28;20028;-60
2023/04/08 05:56:31;;;;;;;25.23;16.40;;;;;;;0.58;100.00;160723.97;5073156;28;20039;-61
2023/04/08 05:58:56;;;;;;;25.65;18.23;;;;;;;0.69;100.00;160752.13;5072543;28;20021;-60
2023/04/08 06:01:22;;;;;;;24.45;18.20;;;;;;;0.82;100.00;160786.97;5070456;28;20037;-60
2023/04/08 06:03:47;;;;;;;20.23;16.42;;;;;;;0.95;100.00;160821.84;5053205;28;20021;-60
2023/04/08 06:06:13;;;;;;;26.70;18.88;;;;;;;1.14;100.00;160870.13;5053255;28;20038;-60
2023/04/08 06:08:38;;;;;;;23.65;19.90;;;;;;;1.15;100.00;160872.81;5071952;28;20031;-60
2023/04/08 06:11:04;;;;;;;18.95;16.95;;;;;;;1.57;100.00;160982.81;5071028;28;20045;-60
2023/04/08 06:13:30;;;;;;;21.30;16.83;;;;;;;1.79;100.00;161037.84;5072261;28;20045;-60
2023/04/08 06:15:55;;;;;;;25.67;17.25;;;;;;;1.93;100.00;161074.03;5070899;28;20033;-60
2023/04/08 06:18:20;;;;;;;25.52;16.98;;;;;;;2.17;100.00;161138.47;5072760;28;20027;-61
2023/04/08 06:20:46;;;;;;;22.98;17.15;;;;;;;2.29;100.00;161167.97;5070674;28;20102;-58
2023/04/08 06:23:11;;;;;;;23.70;16.38;;;;;;;2.51;100.00;161227.03;5067954;28;20017;-59
2023/04/08 06:25:37;;;;;;;17.95;15.00;;;;;;;2.75;100.00;161287.50;5059157;28;20610;-59
2023/04/08 06:28:02;;;;;;;19.02;14.52;;;;;;;2.88;100.00;161321.03;5051978;28;20032;-59
2023/04/08 06:30:28;;;;;;;16.08;14.40;;;;;;;2.88;100.00;161321.03;5051181;28;20045;-59
2023/04/08 06:32:53;;;;;;;16.80;14.73;;;;;;;2.72;100.00;161279.41;5052463;28;20499;-58
2023/04/08 06:35:18;;;;;;;13.95;11.85;;;;;;;2.93;100.00;161334.50;5050769;28;20507;-59
2023/04/08 06:37:44;;;;;;;18.63;12.38;;;;;;;3.08;100.00;161374.78;5052411;28;20358;-59
2023/04/08 06:40:10;;;;;;;16.42;13.43;;;;;;;3.16;100.00;161396.22;5050907;28;20040;-59
2023/04/08 06:42:37;;;;;;;18.63;12.88;;;;;;;3.31;100.00;161433.88;5051912;28;20017;-58
2023/04/08 06:45:03;;;;;;;14.90;12.10;;;;;;;3.27;100.00;161423.09;5053053;28;20048;-59
2023/04/08 06:47:28;;;;;;;14.63;11.88;;;;;;;3.44;100.00;161468.81;5071638;28;20044;-58
2023/04/08 06:49:54;;;;;;;15.50;13.40;;;;;;;3.60;100.00;161509.09;5070057;28;20040;-58
2023/04/08 06:52:19;;;;;;;15.30;11.73;;;;;;;3.56;100.00;161498.34;5071449;28;20021;-59
2023/04/08 06:54:45;;;;;;;18.15;13.35;;;;;;;3.80;100.00;161562.84;5069243;28;20043;-59
2023/04/08 06:57:10;;;;;;;13.50;12.13;;;;;;;3.81;100.00;161565.53;5071193;28;20016;-59
2023/04/08 06:59:36;;;;;;;12.88;10.65;;;;;;;4.15;100.00;161651.50;5070564;28;20450;-59
2023/04/08 07:02:01;;;;;;;12.20;10.63;;;;;;;4.24;100.00;161675.72;5071174;28;20021;-59
2023/04/08 07:04:26;;;;;;;16.25;10.77;;;;;;;4.46;100.00;161733.56;5070067;28;20040;-58
2023/04/08 07:06:52;;;;;;;27.30;13.00;;;;;;;4.53;100.00;161752.38;5071105;28;20031;-59
2023/04/08 07:09:17;;;;;;;12.55;10.98;;;;;;;4.55;100.00;161756.38;5070100;28;20032;-58
2023/04/08 07:11:43;;;;;;;12.65;10.52;;;;;;;4.39;100.00;161716.06;5071017;28;20016;-58
2023/04/08 07:14:08;;;;;;;13.80;12.18;;;;;;;4.65;100.00;161781.91;5069817;28;20067;-58
2023/04/08 07:16:34;;;;;;;11.00;9.82;;;;;;;4.66;100.00;161785.94;5071099;28;20054;-58
2023/04/08 07:18:59;;;;;;;14.20;10.25;;;;;;;5.07;100.00;161893.53;5070951;28;20219;-58
2023/04/08 07:21:25;;;;;;;11.70;10.50;;;;;;;5.45;100.00;161991.72;5069940;28;20053;-58
2023/04/08 07:23:50;;;;;;;13.63;10.63;;;;;;;5.84;100.00;162092.66;5071087;28;20036;-58
2023/04/08 07:26:15;;;;;;;11.80;10.57;;;;;;;6.15;100.00;162174.78;5067977;28;20535;-58
2023/04/08 07:28:41;;;;;;;17.38;9.77;;;;;;;6.35;100.00;162227.28;5071261;28;20028;-58
2023/04/08 07:31:17;;;;;;;13.20;9.45;;;;;;;6.45;100.00;162251.47;5069837;28;20039;-58
2023/04/08 07:33:43;;;;;;;12.20;9.75;;;;;;;6.83;100.00;162351.13;5070983;28;20027;-58
2023/04/08 07:36:10;;;;;;;10.55;9.55;;;;;;;7.29;100.00;162472.34;5069342;28;20521;-58
2023/04/08 07:38:36;;;;;;;11.90;9.38;;;;;;;7.37;100.00;162491.19;5071305;28;20043;-58
2023/04/08 07:41:01;;;;;;;11.57;8.30;;;;;;;7.16;100.00;162437.31;5069090;28;20036;-58
2023/04/08 07:43:26;;;;;;;14.40;9.75;;;;;;;6.80;100.00;162344.41;5066905;28;20028;-58
2023/04/08 07:45:52;;;;;;;10.48;9.38;;;;;;;6.81;100.00;162347.09;5064621;28;20036;-58
2023/04/08 07:48:17;;;;;;;14.32;9.80;;;;;;;7.25;100.00;162460.22;5069512;28;20035;-58
2023/04/08 07:50:44;;;;;;;12.10;9.43;;;;;;;7.17;100.00;162438.66;5069327;28;20043;-58
2023/04/08 07:53:09;;;;;;;10.75;9.77;;;;;;;6.96;100.00;162386.13;5070652;28;20379;-58
2023/04/08 07:55:35;;;;;;;10.80;9.70;;;;;;;6.99;100.00;162394.22;5069305;28;20032;-58
2023/04/08 07:58:00;;;;;;;13.45;11.98;;;;;;;7.23;100.00;162454.81;5069933;28;20508;-58
2023/04/08 08:00:29;;;;;;;9.70;8.77;;;;;;;7.38;100.00;162495.22;5068290;28;20491;-58
2023/04/08 08:02:54;;;;;;;8.27;7.50;;;;;;;7.33;100.00;162480.44;5069826;28;20031;-58
2023/04/08 08:05:20;;;;;;;12.02;10.90;;;;;;;7.41;100.00;162502.00;5068448;28;20045;-58
2023/04/08 08:07:45;;;;;;;12.02;10.32;;;;;;;7.21;100.00;162450.78;5070647;28;20027;-58
2023/04/08 08:10:10;;;;;;;13.75;11.40;;;;;;;7.59;100.00;162550.47;5068972;28;20067;-58
2023/04/08 08:12:36;;;;;;;12.98;9.85;;;;;;;7.98;100.00;162650.19;5070239;28;20016;-58
2023/04/08 08:15:02;;;;;;;13.13;9.38;;;;;;;8.28;100.00;162728.34;5069009;28;20028;-58
2023/04/08 08:17:29;;;;;;;11.45;9.05;;;;;;;8.21;100.00;162712.19;5070673;28;20020;-58
2023/04/08 08:19:55;;;;;;;11.23;8.70;;;;;;;8.28;100.00;162729.66;5068294;28;20049;-58
2023/04/08 08:22:21;;;;;;;9.68;8.77;;;;;;;8.59;100.00;162809.28;5070525;28;20468;-58
2023/04/08 08:24:46;;;;;;;10.68;9.38;;;;;;;9.12;100.00;162949.47;5069647;28;20036;-58
2023/04/08 08:27:12;;;;;;;11.05;9.90;;;;;;;9.78;100.00;163120.78;5067816;28;20036;-59
2023/04/08 08:29:37;;;;;;;14.38;8.90;;;;;;;10.27;100.00;163248.97;5068749;28;20044;-58
2023/04/08 08:32:03;;;;;;;9.23;8.15;;;;;;;10.05;100.00;163190.97;5070217;28;20024;-59
2023/04/08 08:34:28;;;;;;;9.98;8.90;;;;;;;9.69;100.00;163097.84;5067256;28;20047;-59
2023/04/08 08:36:54;;;;;;;17.00;8.43;;;;;;;8.76;100.00;162855.09;5070277;28;20017;-58
2023/04/08 08:39:20;;;;;;;12.30;10.07;;;;;;;8.18;100.00;162702.75;5068953;28;20020;-58
2023/04/08 08:41:45;;;;;;;11.65;9.75;;;;;;;7.87;100.00;162623.22;5069634;28;20503;-59
2023/04/08 08:44:12;;;;;;;15.50;9.63;;;;;;;7.83;100.00;162612.44;5068523;28;20029;-58
2023/04/08 08:46:42;;;;;;;11.63;9.82;;;;;;;7.72;100.00;162582.78;5070087;28;20024;-59
2023/04/08 08:49:08;;;;;;;11.98;10.05;;;;;;;7.96;100.00;162644.78;5068291;28;20051;-58
2023/04/08 08:51:34;;;;;;;10.43;8.77;;;;;;;7.98;100.00;162650.19;5070264;28;20028;-58
2023/04/08 08:54:03;;;;;;;18.02;11.52;;;;;;;8.01;100.00;162658.22;5069729;28;20028;-58
2023/04/08 08:56:29;;;;;;;12.68;10.75;;;;;;;8.16;100.00;162698.66;5068700;28;20044;-58
2023/04/08 08:58:54;;;;;;;13.43;10.52;;;;;;;8.41;100.00;162763.38;5069996;28;20024;-58
2023/04/08 09:01:36;;;;;;;11.63;9.48;;;;;;;8.75;100.00;162852.38;5068686;28;20032;-58
2023/04/08 09:04:08;;;;;;;10.52;9.63;;;;;;;8.95;100.00;162903.66;5068177;28;20033;-58
2023/04/08 09:06:35;;;;;;;10.07;8.93;;;;;;;9.38;100.00;163015.59;5069895;28;20056;-58
2023/04/08 09:09:01;;;;;;;10.27;9.20;;;;;;;9.56;100.00;163062.78;5065751;28;20032;-58
2023/04/08 09:11:26;;;;;;;11.48;8.63;;;;;;;9.15;100.00;162956.25;5068095;28;20037;-58
2023/04/08 09:13:52;;;;;;;11.50;10.23;;;;;;;9.00;100.00;162917.13;5069654;28;20525;-58
2023/04/08 09:16:19;;;;;;;17.65;10.10;;;;;;;9.26;100.00;162984.56;5071667;28;20040;-58
2023/04/08 09:18:46;;;;;;;12.30;10.18;;;;;;;9.33;100.00;163003.44;5073373;28;20024;-58
2023/04/08 09:21:13;;;;;;;10.35;9.32;;;;;;;9.34;100.00;163006.16;5071816;28;20080;-58
2023/04/08 09:23:48;;;;;;;12.05;10.43;;;;;;;9.52;100.00;163054.69;5073432;28;20491;-59
2023/04/08 09:26:16;;;;;;;13.10;10.77;;;;;;;9.53;100.00;163057.38;5071678;28;20037;-59
2023/04/08 09:28:43;;;;;;;13.23;11.07;;;;;;;9.81;100.00;163130.22;5073658;28;20092;-58
2023/04/08 09:31:31;;;;;;;10.25;9.23;;;;;;;10.15;100.00;163219.28;5071875;28;20093;-58
2023/04/08 09:33:58;;;;;;;12.95;10.00;;;;;;;10.35;100.00;163270.56;5072861;28;20098;-58
2023/04/08 09:36:28;;;;;;;10.52;9.45;;;;;;;10.37;100.00;163276.03;5069994;28;20071;-59
2023/04/08 09:38:54;;;;;;;8.95;8.15;;;;;;;10.25;100.00;163244.94;5072852;28;20024;-59
2023/04/08 09:41:22;;;;;;;8.98;7.47;;;;;;;10.33;100.00;163265.16;5071636;28;20059;-58
2023/04/08 09:43:51;;;;;;;9.85;7.95;;;;;;;10.26;100.00;163246.25;5072965;28;20048;-59
2023/04/08 09:46:17;;;;;;;;;;;;;;;9.83;100.00;163135.63;5072420;28;20048;-58
2023/04/08 09:48:53;;;;;;;11.73;9.32;;;;;;;9.84;100.00;163138.34;5072978;28;20426;-58
2023/04/08 09:51:22;;;;;;;11.68;8.45;;;;;;;10.37;100.00;163276.03;5071540;28;20081;-58
2023/04/08 09:53:58;;;;;;;10.40;9.38;;;;;;;10.66;100.00;163350.22;5072976;28;20036;-59
2023/04/08 09:56:29;;;;;;;11.23;7.78;;;;;;;10.94;100.00;163424.50;5069715;28;20040;-59
2023/04/08 09:58:59;;;;;;;11.25;8.45;;;;;;;11.34;100.00;163529.84;5072948;28;20436;-59
2023/04/08 10:01:35;;;;;;;9.20;8.35;;;;;;;11.28;100.00;163513.63;5071783;28;20040;-59
2023/04/08 10:04:04;;;;;;;7.75;6.72;;;;;;;10.99;100.00;163437.97;5073002;28;20050;-59
2023/04/08 10:06:32;;;;;;;10.60;8.35;;;;;;;10.86;100.00;163402.88;5072112;28;20119;-58
2023/04/08 10:08:57;;;;;;;8.32;7.50;;;;;;;11.58;100.00;163591.91;5072020;28;20020;-59
2023/04/08 10:11:23;;;;;;;8.13;7.32;;;;;;;12.12;100.00;163732.47;5069075;28;20063;-59
2023/04/08 10:13:49;;;;;;;7.80;7.05;;;;;;;11.69;100.00;163620.31;5072000;28;20830;-59
2023/04/08 10:16:24;;;;;;;10.18;7.13;;;;;;;11.40;100.00;163546.03;5064192;28;20045;-59
2023/04/08 10:18:54;;;;;;;9.85;8.85;;;;;;;11.86;100.00;163666.22;5067851;28;20035;-59
2023/04/08 10:21:35;;;;;;;8.75;7.68;;;;;;;11.27;100.00;163512.25;5070681;28;20055;-59
2023/04/08 10:24:05;;;;;;;8.90;7.85;;;;;;;11.52;100.00;163577.09;5071825;28;20040;-59
2023/04/08 10:26:40;;;;;;;8.45;7.38;;;;;;;11.95;100.00;163689.16;5068910;28;20044;-59
2023/04/08 10:29:17;;;;;;;9.35;8.45;;;;;;;12.94;100.00;163948.69;5070577;28;20580;-59
2023/04/08 10:31:47;;;;;;;7.90;7.07;;;;;;;12.73;100.00;163891.94;5071413;28;20016;-59
2023/04/08 10:34:16;;;;;;;8.15;7.15;;;;;;;12.40;100.00;163805.47;5069106;28;20434;-59
2023/04/08 10:36:43;;;;;;;10.50;8.32;;;;;;;11.69;100.00;163621.66;5072235;28;20050;-59
2023/04/08 10:39:08;;;;;;;8.18;7.38;;;;;;;11.82;100.00;163655.44;5069716;28;20036;-59
2023/04/08 10:41:34;;;;;;;8.75;7.22;;;;;;;11.51;100.00;163574.38;5071137;28;20111;-59
2023/04/08 10:44:02;;;;;;;8.55;7.55;;;;;;;11.56;100.00;163586.53;5071377;28;20384;-59
2023/04/08 10:46:28;;;;;;;8.30;7.50;;;;;;;11.15;100.00;163478.47;5069943;28;20075;-59
2023/04/08 10:49:02;;;;;;;10.75;7.60;;;;;;;11.34;100.00;163529.84;5071684;28;20031;-59
2023/04/08 10:51:31;;;;;;;9.07;7.70;;;;;;;11.55;100.00;163583.84;5070858;28;20056;-59
2023/04/08 10:54:07;;;;;;;9.82;8.82;;;;;;;12.15;100.00;163740.59;5071107;28;20036;-59
2023/04/08 10:56:34;;;;;;;9.02;8.20;;;;;;;12.62;100.00;163864.88;5070819;28;20067;-59
2023/04/08 10:59:00;;;;;;;13.20;9.77;;;;;;;13.36;100.00;164056.88;5071276;28;20396;-59
2023/04/08 11:01:26;;;;;;;11.85;10.63;;;;;;;13.72;100.00;164152.91;5070023;28;20048;-59
2023/04/08 11:03:52;;;;;;;17.30;7.93;;;;;;;13.43;100.00;164075.84;5071093;28;20530;-59
2023/04/08 11:06:18;;;;;;;10.93;9.77;;;;;;;13.68;100.00;164140.72;5069861;28;20094;-59